Nearby METAR Reports

(scroll for additional cities)

KPSP - Palm Springs, California, USA
Distance from station: WNW 7mi, 11km
Updated: Sun, 21-Jan-2018 5:53am PST
Clear
Clear
 Wind from NW
Wind: NW 7 mph , 11 km/h
Temperature: 46°F , 8°C
Wind Chill: 42°F , 6°C
Dew Point: 28°F , -2°C
Humidity: 50%
Barometer: 30.23 inHg , 1023.7 hPa
Clouds: Clear
Visibility: 10 miles , 16 km
2018/01/21 13:53 KPSP 211353Z AUTO 32006KT 10SM CLR 08/M02 A3023 RMK AO2 SLP238 T00831022 PNO $
KTRM - Thermal/Palm Spg, California, USA
Distance from station: SE 16mi, 26km
Updated: Sun, 21-Jan-2018 5:52am PST
Clear
Clear
 Wind from NNW
Wind: NNW 3 mph , 6 km/h
Temperature: 37°F , 3°C
Dew Point: 27°F , -3°C
Humidity: 65%
Barometer: 30.21 inHg , 1023 hPa
Clouds: Clear
Visibility: 10 miles , 16 km
2018/01/21 13:52 KTRM 211352Z AUTO 34003KT 10SM CLR 03/M03 A3021 RMK AO2 SLP228 T00331033
 
KNXP - Twentynine Palms, California, USA
Distance from station: NNE 37mi, 60km
Updated: Sun, 21-Jan-2018 5:56am PST
Clear
Clear
 Wind from N
Wind: N 6 mph , 9 km/h
Temperature: 36°F , 2°C
Wind Chill: 31°F , -1°C
Dew Point: 19°F , -7°C
Humidity: 52%
Barometer: 30.30 inHg , 1026.1 hPa
Clouds: Clear
Visibility: 10 miles , 16 km
2018/01/21 13:56 KNXP 211356Z AUTO 01005KT 10SM CLR 02/M07 A3030 RMK AO2 SLP249 T00221067
KL35 - Big Bear City, California, USA
Distance from station: NW 43mi, 69km
Updated: Sun, 21-Jan-2018 5:55am PST
Clear
Clear
 Wind from calm
Wind: Calm
Temperature: 10°F , -12°C
Dew Point: 7°F , -14°C
Humidity: 85%
Barometer: 30.16 inHg , 1021.3 hPa
Clouds: Clear
Visibility: 10 miles , 16 km
2018/01/21 13:55 KL35 211355Z AUTO 00000KT 10SM CLR M12/M14 A3016 RMK AO2
 
KF70 - Murrieta/Temecula, California, USA
Distance from station: WSW 45mi, 73km
Updated: Sun, 21-Jan-2018 5:55am PST
Clear
Clear
 Wind from N
Wind: N 3 mph , 6 km/h
Temperature: 34°F , 1°C
Dew Point: 32°F , 0°C
Humidity: 93%
Barometer: 30.22 inHg , 1023.4 hPa
Clouds: Clear
Visibility: 10 miles , 16 km
2018/01/21 13:55 KF70 211355Z AUTO 36003KT 10SM CLR 01/M00 A3022 RMK AO1
KRIV - Riverside/March, California, USA
Distance from station: W 51mi, 82km
Updated: Sun, 21-Jan-2018 5:58am PST
Clear
Clear
 Wind from calm
Wind: Calm
Temperature: 28°F , -2°C
Dew Point: 28°F , -2°C
Humidity: 100%
Barometer: 30.21 inHg , 1023 hPa
Clouds: Clear
Visibility: 10 miles , 16 km
2018/01/21 13:58 KRIV 211358Z AUTO 00000KT 10SM CLR M02/M02 A3021 RMK AO2 SLP237 T10191020
 
KSBD - San Bernardino, California, USA
Distance from station: WNW 54mi, 86km
Updated: Sun, 21-Jan-2018 5:40am PST
Clear
Clear
 Wind from SE
Wind: SE 5 mph , 7 km/h
Temperature: 39°F , 4°C
Wind Chill: 35°F , 2°C
Dew Point: 28°F , -2°C
Humidity: 65%
Barometer: 30.22 inHg , 1023.4 hPa
Clouds: Clear
Visibility: 10 miles , 16 km
2018/01/21 13:40 KSBD 211340Z AUTO 13004KT 10SM CLR 04/M02 A3022 RMK AO2 T00391024
KRNM - Ramona, California, USA
Distance from station: SSW 60mi, 96km
Updated: Sun, 21-Jan-2018 5:53am PST
Mist, Clear
Mist, Clear
 Wind from SE
Wind: SE 3 mph , 6 km/h
Temperature: 32°F , 0°C
Dew Point: 30°F , -1°C
Humidity: 93%
Barometer: 30.21 inHg , 1023 hPa
Summary: Mist
Clouds: Clear
Visibility: 1 3/4 miles , 5 km
2018/01/21 13:53 KRNM 211353Z AUTO 13003KT 1 3/4SM BR CLR 00/M01 A3021 RMK AO2 SLP233 T00001006
 
KRAL - Riverside, California, USA
Distance from station: W 62mi, 100km
Updated: Sun, 21-Jan-2018 5:53am PST
Clear
Clear
 Wind from E
Wind: E 5 mph , 7 km/h
Temperature: 41°F , 5°C
Wind Chill: 38°F , 3°C
Dew Point: 32°F , 0°C
Humidity: 70%
Barometer: 30.22 inHg , 1023.4 hPa
Clouds: Clear
Visibility: 10 miles , 16 km
2018/01/21 13:53 KRAL 211353Z AUTO 08004KT 10SM CLR 05/00 A3022 RMK AO2 SLP227 T00500000 $
KOKB - Oceanside, California, USA
Distance from station: SW 68mi, 109km
Updated: Sun, 21-Jan-2018 5:52am PST
Clear
Clear
 Wind from NNE
Wind: NNE 3 mph , 6 km/h
Temperature: 37°F , 3°C
Dew Point: 34°F , 1°C
Humidity: 87%
Barometer: 30.22 inHg , 1023.4 hPa
Clouds: Clear
Visibility: 10 miles , 16 km
2018/01/21 13:52 KOKB 211352Z AUTO 03003KT 10SM CLR 03/01 A3022 RMK AO2 SLP232 T00330011
 
KONT - Ontario, California, USA
Distance from station: WNW 71mi, 114km
Updated: Sun, 21-Jan-2018 5:53am PST
Clear
Clear
 Wind from NNW
Wind: NNW 5 mph , 7 km/h
Temperature: 37°F , 3°C
Wind Chill: 33°F , 1°C
Dew Point: 28°F , -2°C
Humidity: 70%
Barometer: 30.21 inHg , 1023 hPa
Clouds: Clear
Visibility: 10 miles , 16 km
2018/01/21 13:53 KONT 211353Z 34004KT 10SM CLR 03/M02 A3021 RMK AO2 SLP233 T00331022 $
KNJK - El Centro Naf, California, USA
Distance from station: SSE 78mi, 126km
Updated: Sun, 21-Jan-2018 5:56am PST
Clear
Clear
 Wind from W
Wind: W 10 mph , 17 km/h
Temperature: 39°F , 4°C
Wind Chill: 32°F , 0°C
Dew Point: 25°F , -4°C
Humidity: 56%
Barometer: 30.23 inHg , 1023.7 hPa
Clouds: Clear
Visibility: 10 miles , 16 km
2018/01/21 13:56 KNJK 211356Z AUTO 26009KT 10SM CLR 04/M04 A3023 RMK AO2 SLP252 T00391044
 
KSEE - San Diego/Santee, California, USA
Distance from station: SSW 74mi, 120km
Updated: Sun, 21-Jan-2018 5:35am PST
Mostly Cloudy
Mostly Cloudy
 Wind from calm
Wind: Calm
Temperature: 39°F , 4°C
Dew Point: 37°F , 3°C
Humidity: 93%
Barometer: 30.21 inHg , 1023 hPa
Clouds: Mostly Cloudy
Visibility: 10 miles , 16 km
Cloud details: Mostly Cloudy 2300 ft
Mostly Cloudy 2700 ft
2018/01/21 13:35 KSEE 211335Z AUTO 00000KT 10SM BKN023 BKN027 04/03 A3021 RMK AO2
KCNO - Chino, California, USA
Distance from station: W 72mi, 116km
Updated: Sun, 21-Jan-2018 5:53am PST
Clear
Clear
 Wind from varies
Wind: varies 3 mph , 6 km/h
Temperature: 37°F , 3°C
Dew Point: 30°F , -1°C
Humidity: 75%
Barometer: 30.23 inHg , 1023.7 hPa
Clouds: Clear
Visibility: 8 miles , 13 km
2018/01/21 13:53 KCNO 211353Z AUTO VRB03KT 8SM CLR 03/M01 A3023 RMK AO2 SLP237 T00281011